createdAt,value
2023-05-18T00:02:48.230Z,0.00
2023-05-18T00:07:48.019Z,0.00
2023-05-18T00:12:47.962Z,0.00
2023-05-18T00:17:47.917Z,0.00
2023-05-18T00:22:47.833Z,0.00
2023-05-18T00:27:47.762Z,0.00
2023-05-18T00:32:47.736Z,0.00
2023-05-18T00:37:47.633Z,0.00
2023-05-18T00:42:47.570Z,0.00
2023-05-18T00:47:47.544Z,0.00
2023-05-18T00:52:47.435Z,0.00
2023-05-18T00:57:47.376Z,0.00
2023-05-18T01:02:47.471Z,0.00
2023-05-18T01:07:47.242Z,0.00
2023-05-18T01:12:47.185Z,0.00
2023-05-18T01:17:47.117Z,0.00
2023-05-18T01:22:47.053Z,0.00
2023-05-18T01:27:46.982Z,0.00
2023-05-18T01:32:47.092Z,0.00
2023-05-18T01:37:46.850Z,0.00
2023-05-18T01:42:46.794Z,0.00
2023-05-18T01:47:46.761Z,0.00
2023-05-18T01:52:46.649Z,0.00
2023-05-18T01:57:46.591Z,0.00
2023-05-18T02:02:46.576Z,0.00
2023-05-18T02:07:46.454Z,0.00
2023-05-18T02:12:46.394Z,0.00
2023-05-18T02:17:46.380Z,0.00
2023-05-18T02:22:46.264Z,0.00
2023-05-18T02:27:46.186Z,0.00
2023-05-18T02:32:46.178Z,0.00
2023-05-18T02:37:46.046Z,0.00
2023-05-18T02:42:46.003Z,0.00
2023-05-18T02:47:46.055Z,0.00
2023-05-18T02:52:46.028Z,0.00
2023-05-18T02:57:46.041Z,0.00
2023-05-18T03:02:46.167Z,0.00
2023-05-18T03:07:46.059Z,0.00
2023-05-18T03:12:46.123Z,5.62
2023-05-18T03:17:46.062Z,11.25
2023-05-18T03:22:45.491Z,16.87
2023-05-18T03:27:45.396Z,28.12
2023-05-18T03:32:45.430Z,45.00
2023-05-18T03:37:45.309Z,61.87
2023-05-18T03:42:45.239Z,84.37
2023-05-18T03:47:45.175Z,101.25
2023-05-18T03:52:45.101Z,123.75
2023-05-18T03:57:45.033Z,140.62
2023-05-18T04:02:45.082Z,157.50
2023-05-18T04:07:44.900Z,180.00
2023-05-18T04:12:44.822Z,208.12
2023-05-18T04:17:44.821Z,230.62
2023-05-18T04:22:44.684Z,258.75
2023-05-18T04:27:44.643Z,286.87
2023-05-18T04:32:44.600Z,270.00
2023-05-18T04:37:44.511Z,281.25
2023-05-18T04:42:44.435Z,292.50
2023-05-18T04:47:44.400Z,382.50
2023-05-18T04:52:44.303Z,461.25
2023-05-18T04:57:44.249Z,500.62
2023-05-18T05:02:44.224Z,596.25
2023-05-18T05:07:44.116Z,1046.25
2023-05-18T05:12:44.043Z,1321.87
2023-05-18T05:17:44.109Z,2081.25
2023-05-18T05:22:43.946Z,2165.62
2023-05-18T05:27:43.847Z,2390.62
2023-05-18T05:32:43.884Z,1338.75
2023-05-18T05:37:43.707Z,2548.12
2023-05-18T05:42:43.645Z,2941.87
2023-05-18T05:47:43.622Z,3065.62
2023-05-18T05:52:43.539Z,2981.25
2023-05-18T05:57:43.456Z,3453.75
2023-05-18T06:02:43.535Z,3532.50
2023-05-18T06:07:43.411Z,3571.87
2023-05-18T06:12:43.250Z,3588.75
2023-05-18T06:17:43.209Z,3898.12
2023-05-18T06:22:43.131Z,4151.25
2023-05-18T06:27:43.063Z,4336.87
2023-05-18T06:32:43.057Z,4218.75
2023-05-18T06:37:44.743Z,4376.25
2023-05-18T06:42:42.868Z,4016.25
2023-05-18T06:47:42.854Z,4078.12
2023-05-18T06:52:42.740Z,4252.50
2023-05-18T06:57:42.670Z,4471.87
2023-05-18T07:02:42.628Z,3988.12
2023-05-18T07:07:42.589Z,2773.12
2023-05-18T07:12:42.471Z,4618.12
2023-05-18T07:17:42.471Z,4888.12
2023-05-18T07:22:42.340Z,4308.75
2023-05-18T07:27:42.269Z,4798.12
2023-05-18T07:32:42.283Z,5146.87
2023-05-18T07:37:42.147Z,4854.37
2023-05-18T07:42:42.052Z,4803.75
2023-05-18T07:47:42.146Z,5248.12
2023-05-18T07:52:41.933Z,5023.12
2023-05-18T07:57:41.940Z,4528.12
2023-05-18T08:02:42.016Z,4567.50
2023-05-18T08:07:41.741Z,5259.37
2023-05-18T08:12:41.686Z,5141.25
2023-05-18T08:17:41.732Z,5343.75
2023-05-18T08:22:41.557Z,4916.25
2023-05-18T08:27:41.484Z,5191.87
2023-05-18T08:32:41.435Z,1040.62
2023-05-18T08:37:41.351Z,5478.75
2023-05-18T08:42:49.359Z,2671.87
2023-05-18T08:47:41.484Z,1237.50
2023-05-18T08:52:41.146Z,4944.37
2023-05-18T08:57:41.097Z,5073.75
2023-05-18T09:02:41.072Z,1473.75
2023-05-18T09:07:40.971Z,5011.87
2023-05-18T09:12:40.882Z,1518.75
2023-05-18T09:17:40.865Z,5085.00
2023-05-18T09:22:40.753Z,3391.87
2023-05-18T09:27:40.700Z,4635.00
2023-05-18T09:32:40.661Z,1091.25
2023-05-18T09:37:40.564Z,4556.25
2023-05-18T09:42:40.487Z,4550.62
2023-05-18T09:47:40.467Z,4567.50
2023-05-18T09:52:40.368Z,4044.37
2023-05-18T09:57:40.295Z,4342.50
2023-05-18T10:02:40.254Z,967.50
2023-05-18T10:07:40.171Z,1096.87
2023-05-18T10:12:40.115Z,3903.75
2023-05-18T10:17:40.201Z,2739.37
2023-05-18T10:22:39.982Z,3858.75
2023-05-18T10:27:40.017Z,3746.25
2023-05-18T10:32:39.872Z,3718.12
2023-05-18T10:37:39.790Z,950.62
2023-05-18T10:42:39.735Z,3318.75
2023-05-18T10:47:39.867Z,3588.75
2023-05-18T10:52:39.596Z,2958.75
2023-05-18T10:57:39.543Z,3436.87
2023-05-18T11:02:39.509Z,4044.37
2023-05-18T11:07:39.416Z,1378.12
2023-05-18T11:12:39.338Z,3746.25
2023-05-18T11:17:39.322Z,2221.87
2023-05-18T11:22:39.213Z,1648.12
2023-05-18T11:27:39.137Z,1378.12
2023-05-18T11:32:39.203Z,1338.75
2023-05-18T11:37:39.036Z,1265.62
2023-05-18T11:42:38.967Z,1186.87
2023-05-18T11:47:39.081Z,967.50
2023-05-18T11:52:38.827Z,1001.25
2023-05-18T11:57:38.755Z,1035.00
2023-05-18T12:02:38.777Z,1130.62
2023-05-18T12:07:38.644Z,961.87
2023-05-18T12:12:38.576Z,1136.25
2023-05-18T12:17:38.585Z,1327.50
2023-05-18T12:22:38.448Z,1186.87
2023-05-18T12:27:38.394Z,1046.25
2023-05-18T12:32:38.339Z,1119.37
2023-05-18T12:42:38.187Z,1051.87
2023-05-18T12:47:38.130Z,1046.25
2023-05-18T12:52:38.071Z,1040.62
2023-05-18T12:57:37.992Z,1040.62
2023-05-18T13:02:38.214Z,911.25
2023-05-18T13:07:37.865Z,877.50
2023-05-18T13:12:37.817Z,883.12
2023-05-18T13:17:37.758Z,911.25
2023-05-18T13:22:37.688Z,945.00
2023-05-18T13:27:37.605Z,883.12
2023-05-18T13:32:37.571Z,832.50
2023-05-18T13:37:37.479Z,770.62
2023-05-18T13:42:37.413Z,787.50
2023-05-18T13:47:37.420Z,759.37
2023-05-18T13:52:37.284Z,742.50
2023-05-18T13:57:37.221Z,804.37
2023-05-18T14:02:37.199Z,725.62
2023-05-18T14:07:37.094Z,691.87
2023-05-18T14:12:37.047Z,714.37
2023-05-18T14:17:36.978Z,697.50
2023-05-18T14:22:36.909Z,708.75
2023-05-18T14:27:36.827Z,725.62
2023-05-18T14:32:36.865Z,703.12
2023-05-18T14:37:36.687Z,675.00
2023-05-18T14:42:36.645Z,630.00
2023-05-18T14:47:36.582Z,585.00
2023-05-18T14:52:36.499Z,528.75
2023-05-18T14:57:36.432Z,472.50
2023-05-18T15:02:36.498Z,388.12
2023-05-18T15:07:36.290Z,348.75
2023-05-18T15:12:36.232Z,337.50
2023-05-18T15:17:36.196Z,399.37
2023-05-18T15:22:36.107Z,348.75
2023-05-18T15:27:36.026Z,270.00
2023-05-18T15:32:36.000Z,270.00
2023-05-18T15:37:35.898Z,292.50
2023-05-18T15:42:35.835Z,326.25
2023-05-18T15:47:35.782Z,371.25
2023-05-18T15:52:35.714Z,438.75
2023-05-18T15:57:35.654Z,461.25
2023-05-18T16:02:35.621Z,421.87
2023-05-18T16:07:35.515Z,376.87
2023-05-18T16:12:35.461Z,281.25
2023-05-18T16:17:35.441Z,309.37
2023-05-18T16:22:35.329Z,450.00
2023-05-18T16:27:35.243Z,478.12
2023-05-18T16:32:35.264Z,365.62
2023-05-18T16:37:35.116Z,320.62
2023-05-18T16:42:35.068Z,331.87
2023-05-18T16:47:35.008Z,303.75
2023-05-18T16:52:34.919Z,241.87
2023-05-18T16:57:34.850Z,191.25
2023-05-18T17:02:37.881Z,180.00
2023-05-18T17:07:34.729Z,174.37
2023-05-18T17:12:34.660Z,185.62
2023-05-18T17:17:34.639Z,191.25
2023-05-18T17:22:34.526Z,157.50
2023-05-18T17:27:34.451Z,140.62
2023-05-18T17:32:34.421Z,135.00
2023-05-18T17:37:34.312Z,129.37
2023-05-18T17:42:34.273Z,123.75
2023-05-18T17:47:34.209Z,106.87
2023-05-18T17:52:34.143Z,95.62
2023-05-18T17:57:34.065Z,90.00
2023-05-18T18:02:34.027Z,84.37
2023-05-18T18:07:33.956Z,73.12
2023-05-18T18:12:33.875Z,67.50
2023-05-18T18:17:33.859Z,61.87
2023-05-18T18:22:35.688Z,56.25
2023-05-18T18:27:33.688Z,45.00
2023-05-18T18:32:33.682Z,39.37
2023-05-18T18:37:33.555Z,28.12
2023-05-18T18:42:33.490Z,22.50
2023-05-18T18:47:33.484Z,16.87
2023-05-18T18:52:33.349Z,11.25
2023-05-18T18:57:33.290Z,11.25
2023-05-18T19:02:33.221Z,5.62
2023-05-18T19:07:33.144Z,0.00
2023-05-18T19:12:33.106Z,0.00
2023-05-18T19:17:33.018Z,0.00
2023-05-18T19:22:32.955Z,0.00
2023-05-18T19:27:32.912Z,0.00
2023-05-18T19:32:32.834Z,0.00
2023-05-18T19:37:32.755Z,0.00
2023-05-18T19:42:32.689Z,0.00
2023-05-18T19:47:32.685Z,0.00
2023-05-18T19:52:32.557Z,0.00
2023-05-18T19:57:32.499Z,0.00
2023-05-18T20:02:32.458Z,0.00
2023-05-18T20:07:32.355Z,0.00
2023-05-18T20:12:32.300Z,0.00
2023-05-18T20:17:32.241Z,0.00
2023-05-18T20:22:32.160Z,0.00
2023-05-18T20:27:32.094Z,0.00
2023-05-18T20:32:32.060Z,0.00
2023-05-18T20:37:31.953Z,0.00
2023-05-18T20:42:31.917Z,0.00
2023-05-18T20:47:31.860Z,0.00
2023-05-18T20:52:31.782Z,0.00
2023-05-18T20:57:31.729Z,0.00
2023-05-18T21:02:31.717Z,0.00
2023-05-18T21:07:31.592Z,0.00
2023-05-18T21:12:31.521Z,0.00
2023-05-18T21:17:31.513Z,0.00
2023-05-18T21:22:31.406Z,0.00
2023-05-18T21:27:31.319Z,0.00
2023-05-18T21:32:31.506Z,0.00
2023-05-18T21:37:31.212Z,0.00
2023-05-18T21:42:31.150Z,0.00
2023-05-18T21:47:31.121Z,0.00
2023-05-18T21:52:31.032Z,0.00
2023-05-18T21:57:30.946Z,0.00
2023-05-18T22:02:30.958Z,0.00
2023-05-18T22:07:30.836Z,0.00
2023-05-18T22:12:30.754Z,0.00
2023-05-18T22:17:30.746Z,0.00
2023-05-18T22:22:31.061Z,0.00
2023-05-18T22:27:30.577Z,0.00
2023-05-18T22:32:30.609Z,0.00
2023-05-18T22:37:30.441Z,0.00
2023-05-18T22:42:30.363Z,0.00
2023-05-18T22:47:30.290Z,0.00
2023-05-18T22:52:30.217Z,0.00
2023-05-18T22:57:30.154Z,0.00
2023-05-18T23:02:30.129Z,0.00
2023-05-18T23:07:30.027Z,0.00
2023-05-18T23:12:29.968Z,0.00
2023-05-18T23:17:29.910Z,0.00
2023-05-18T23:22:29.837Z,0.00
2023-05-18T23:27:29.771Z,0.00
2023-05-18T23:32:29.791Z,0.00
2023-05-18T23:37:29.619Z,0.00
2023-05-18T23:42:29.565Z,0.00
2023-05-18T23:47:29.543Z,0.00
2023-05-18T23:52:29.425Z,0.00
2023-05-18T23:57:29.354Z,0.00
